CW3467 Sant Marti de Canals ES current weather conditions

sailwx.info

Wind from 100 at 2 knots gusting 4

Air temperature 23.3° C
Dewpoint 10.7° C

Last reported at 2014-Jul-30 20:36 UTC.
Time now 2014-Jul-30 21:18 UTC

Location: N 42°14' E 000°59'.
View on Google Maps.

See reports from other nearby stations

  
Tides and Currents Weather Stations Pressure Air Temp Water Temp Dewpoint Dewpoint Depression Visibility Wind Speed Wind Dir Waves Ship Positions
date/time (UTC)wind fromknots sea level pressurealtimeterstation pressurevisibilityair tempwater tempwave heightnotes
2014-Jul-30 20:36 100 2 gusting 4 23.3
2014-Jul-30 20:21 112 2 gusting 4 23.3
2014-Jul-30 20:06 128 2 gusting 6 23.9
2014-Jul-30 19:50 158 4 gusting 6 23.9
2014-Jul-30 19:19 143 4 gusting 6 24.4
2014-Jul-30 19:03 155 2 gusting 6 25.0
2014-Jul-30 18:48 166 2 gusting 6 26.1
2014-Jul-30 18:32 214 2 gusting 7 27.2
2014-Jul-30 18:17 205 3 gusting 7 27.2
2014-Jul-30 18:02 203 2 gusting 6 27.8
2014-Jul-30 17:46 148 5 gusting 9 27.8
2014-Jul-30 17:30 158 6 gusting 11 27.8
2014-Jul-30 17:15 166 6 gusting 11 28.3
2014-Jul-30 17:00 212 5 gusting 8 28.3
2014-Jul-30 16:44 224 5 gusting 9 28.9
2014-Jul-30 16:28 167 2 gusting 9 28.9
2014-Jul-30 16:14 202 4 gusting 7 29.4
2014-Jul-30 15:58 288 2 gusting 6 29.4
2014-Jul-30 15:42 138 4 gusting 10 29.4
2014-Jul-30 15:15 210 6 gusting 12 28.9
2014-Jul-30 15:00 248 2 gusting 8 30.0
2014-Jul-30 14:11 224 2 gusting 7 29.4
2014-Jul-30 13:10 191 2 gusting 6 28.9
2014-Jul-30 12:55 110 2 gusting 7 28.9
2014-Jul-30 12:39 243 2 gusting 8 28.3
2014-Jul-30 12:24 259 2 gusting 6 28.3
2014-Jul-30 12:07 246 1 gusting 7 27.8
2014-Jul-30 11:53 208 3 gusting 7 27.2
2014-Jul-30 11:36 219 3 gusting 10 27.2
2014-Jul-30 11:22 228 1 gusting 7 26.7
2014-Jul-30 11:06 338 2 gusting 6 26.7
2014-Jul-30 10:50 239 3 gusting 8 25.6
2014-Jul-30 10:34 203 2 gusting 6 25.0
2014-Jul-30 10:19 200 2 gusting 6 25.0
2014-Jul-30 10:03 179 2 gusting 6 24.4
2014-Jul-30 09:49 252 2 gusting 7 23.3
2014-Jul-30 09:32 240 4 gusting 8 23.3
2014-Jul-30 09:17 014 1 gusting 4 23.3
2014-Jul-30 09:02 267 0 gusting 3 22.8
2014-Jul-30 08:47 336 0 gusting 3 22.8
2014-Jul-30 08:32 219 21.7
2014-Jul-30 08:15 170 21.7
2014-Jul-30 08:00 255 21.1
2014-Jul-30 07:44 188 20.6
2014-Jul-30 07:28 217 18.9
2014-Jul-30 07:13 135 17.8
2014-Jul-30 06:57 108 0 gusting 1 16.1
2014-Jul-30 06:43 181 14.4
2014-Jul-30 06:27 142 2 gusting 3 13.9
2014-Jul-30 06:11 129 13.3
2014-Jul-30 05:57 162 12.8
2014-Jul-30 05:41 195 0 gusting 6 13.3
2014-Jul-30 05:26 126 2 gusting 3 12.8
2014-Jul-30 05:09 340 1 gusting 4 12.8
2014-Jul-30 04:54 354 0 gusting 2 13.3
2014-Jul-30 04:39 343 13.9
2014-Jul-30 04:23 051 1 gusting 4 13.9
2014-Jul-30 04:07 049 1 gusting 4 13.9
2014-Jul-30 03:52 051 1 gusting 4 13.9
2014-Jul-30 03:36 327 1 gusting 5 13.9
2014-Jul-30 03:21 355 2 gusting 5 13.9
2014-Jul-30 03:06 360 2 gusting 4 13.9
2014-Jul-30 02:50 356 1 gusting 6 13.9
2014-Jul-30 02:34 004 2 gusting 7 14.4
2014-Jul-30 02:20 341 2 gusting 6 14.4
2014-Jul-30 02:03 010 2 gusting 6 15.0
2014-Jul-30 01:49 333 1 gusting 5 15.0
2014-Jul-30 01:33 346 4 gusting 6 15.0
2014-Jul-30 01:17 120 0 gusting 1 14.4
2014-Jul-30 01:02 101 15.0
2014-Jul-30 00:47 148 0 gusting 3 15.0
2014-Jul-30 00:31 097 15.6
2014-Jul-30 00:15 145 1 gusting 5 16.7
2014-Jul-29 23:59 006 17.2
2014-Jul-29 23:44 104 16.7
2014-Jul-29 23:30 017 17.8
2014-Jul-29 23:13 346 0 gusting 4 18.9
2014-Jul-29 22:58 077 3 gusting 7 18.9
2014-Jul-29 22:42 005 1 gusting 6 18.9
2014-Jul-29 22:27 053 3 gusting 9 18.9
2014-Jul-29 22:12 340 1 gusting 7 19.4
2014-Jul-29 21:56 074 2 gusting 7 19.4
2014-Jul-29 21:42 038 4 gusting 10 19.4
2014-Jul-29 21:10 033 3 gusting 7 19.4
2014-Jul-29 20:55 338 3 gusting 13 19.4
2014-Jul-29 20:38 091 7 gusting 13 20.0
2014-Jul-29 20:23 009 6 gusting 12 20.0
2014-Jul-29 20:09 028 6 gusting 12 20.0
2014-Jul-29 19:52 328 5 gusting 13 20.0
2014-Jul-29 19:37 345 4 gusting 10 20.0
2014-Jul-29 19:21 316 6 gusting 13 20.6
2014-Jul-29 19:06 340 8 gusting 17 20.6
2014-Jul-29 18:51 022 8 gusting 14 21.1
2014-Jul-29 18:34 048 3 gusting 7 22.2
2014-Jul-29 18:19 342 7 gusting 16 22.2
2014-Jul-29 18:04 026 6 gusting 17 22.8
2014-Jul-29 17:49 335 9 gusting 17 22.8
2014-Jul-29 17:34 063 8 gusting 14 23.3
2014-Jul-29 17:18 348 6 gusting 19 23.3
2014-Jul-29 17:02 049 7 gusting 19 23.9
2014-Jul-29 16:31 066 5 gusting 14 25.0
2014-Jul-29 16:17 353 5 gusting 12 25.0
2014-Jul-29 16:00 346 4 gusting 11 25.0
2014-Jul-29 15:45 245 2 gusting 9 25.6
2014-Jul-29 15:29 030 2 gusting 7 26.7
2014-Jul-29 15:14 115 0 gusting 11 26.1
2014-Jul-29 14:58 302 1 gusting 7 26.1
2014-Jul-29 14:44 148 4 gusting 7 26.1
2014-Jul-29 14:28 176 3 gusting 6 25.6
2014-Jul-29 14:12 323 2 gusting 9 25.6
2014-Jul-29 13:56 294 5 gusting 8 25.6
2014-Jul-29 13:42 152 1 gusting 8 25.6
2014-Jul-29 13:26 188 25.6
2014-Jul-29 13:10 024 5 gusting 7 25.0
2014-Jul-29 12:55 328 0 gusting 6 25.0
2014-Jul-29 12:40 357 3 gusting 9 25.0
2014-Jul-29 12:24 349 4 gusting 8 23.9
2014-Jul-29 12:09 027 3 gusting 10 24.4
2014-Jul-29 11:54 008 5 gusting 7 25.0
2014-Jul-29 11:37 186 0 gusting 8 24.4
2014-Jul-29 11:22 046 4 gusting 9 23.3
2014-Jul-29 11:06 356 1 gusting 9 23.9
2014-Jul-29 10:52 239 2 gusting 9 23.9
2014-Jul-29 10:36 284 4 gusting 15 23.3
2014-Jul-29 10:20 287 8 gusting 16 23.3
2014-Jul-29 10:05 019 2 gusting 12 23.3
2014-Jul-29 09:49 304 3 gusting 8 23.3
2014-Jul-29 09:33 316 22.8
2014-Jul-29 09:18 360 2 gusting 4 21.7
2014-Jul-29 09:03 098 3 gusting 6 22.2
2014-Jul-29 08:47 356 2 gusting 7 21.7
2014-Jul-29 08:32 335 1 gusting 6 21.1
2014-Jul-29 08:16 010 2 gusting 9 21.1
2014-Jul-29 08:00 068 1 gusting 6 20.6
2014-Jul-29 07:45 353 3 gusting 6 20.0
2014-Jul-29 07:31 008 6 gusting 10 19.4
2014-Jul-29 07:15 070 3 gusting 7 18.9
2014-Jul-29 06:59 323 3 gusting 7 18.9
2014-Jul-29 06:44 015 4 gusting 8 17.8
2014-Jul-29 06:29 039 4 gusting 9 17.8
2014-Jul-29 06:12 348 4 gusting 11 17.2
2014-Jul-29 05:56 069 3 gusting 14 17.2
2014-Jul-29 05:42 024 4 gusting 10 16.7
2014-Jul-29 05:25 346 16.1
2014-Jul-29 05:10 044 16.1
2014-Jul-29 04:55 335 16.7
2014-Jul-29 04:39 134 0 gusting 5 16.7
2014-Jul-29 04:23 148 1 gusting 8 17.8
2014-Jul-29 04:09 344 4 gusting 9 17.8
2014-Jul-29 03:53 357 4 gusting 11 17.8
2014-Jul-29 03:37 015 1 gusting 6 17.8
2014-Jul-29 03:22 061 3 gusting 10 17.8
2014-Jul-29 03:06 315 1 gusting 9 18.3
2014-Jul-29 02:52 046 0 gusting 3 17.8
2014-Jul-29 02:36 025 2 gusting 7 17.8
2014-Jul-29 02:20 245 18.3
2014-Jul-29 02:04 018 2 gusting 7 18.3
2014-Jul-29 01:50 041 2 gusting 6 18.3
2014-Jul-29 01:34 354 0 gusting 3 18.3
2014-Jul-29 01:18 110 0 gusting 3 17.8
2014-Jul-29 01:02 110 17.8
2014-Jul-29 00:48 056 17.2
2014-Jul-29 00:31 098 0 gusting 2 17.8
2014-Jul-29 00:17 117 17.8
2014-Jul-29 00:00 121 17.8
2014-Jul-28 23:46 129 2 gusting 4 17.8
2014-Jul-28 23:30 220 17.8
2014-Jul-28 23:15 132 18.3
2014-Jul-28 23:00 137 18.9
2014-Jul-28 22:44 102 18.3
2014-Jul-28 22:27 221 18.9
2014-Jul-28 22:12 028 18.9
2014-Jul-28 21:57 034 18.9
2014-Jul-28 21:41 158 19.4
2014-Jul-28 21:26 094 19.4
2014-Jul-28 21:10 333 19.4